createdAt,value
2022-11-04T00:02:16.880Z,81.42
2022-11-04T00:04:43.998Z,81.97
2022-11-04T00:07:31.150Z,81.86
2022-11-04T00:09:58.208Z,81.49
2022-11-04T00:12:25.237Z,81.75
2022-11-04T00:14:52.429Z,81.45
2022-11-04T00:17:19.734Z,81.55
2022-11-04T00:20:07.723Z,81.88
2022-11-04T00:22:54.310Z,81.85
2022-11-04T00:28:35.350Z,82.02
2022-11-04T00:31:22.664Z,82.11
2022-11-04T00:33:51.551Z,81.95
2022-11-04T00:36:18.979Z,82.09
2022-11-04T00:38:46.706Z,81.92
2022-11-04T00:41:26.672Z,82.13
2022-11-04T00:43:56.306Z,81.78
2022-11-04T00:46:23.656Z,81.90
2022-11-04T00:48:50.730Z,82.04
2022-11-04T00:51:18.424Z,82.06
2022-11-04T00:53:45.828Z,82.16
2022-11-04T00:56:13.107Z,82.47
2022-11-04T00:58:40.374Z,82.23
2022-11-04T01:01:09.551Z,82.07
2022-11-04T01:03:37.240Z,82.43
2022-11-04T01:06:04.561Z,82.24
2022-11-04T01:08:31.737Z,82.47
2022-11-04T01:11:03.115Z,82.40
2022-11-04T01:13:30.269Z,82.54
2022-11-04T01:16:07.195Z,83.04
2022-11-04T01:18:34.799Z,82.67
2022-11-04T01:21:03.989Z,83.16
2022-11-04T01:23:31.518Z,82.97
2022-11-04T01:25:58.583Z,83.12
2022-11-04T01:28:26.950Z,82.72
2022-11-04T01:30:53.985Z,83.19
2022-11-04T01:33:21.259Z,83.19
2022-11-04T01:35:48.239Z,83.55
2022-11-04T01:38:15.338Z,83.66
2022-11-04T01:40:42.970Z,83.71
2022-11-04T01:43:21.911Z,83.15
2022-11-04T01:46:01.680Z,84.03
2022-11-04T01:48:34.386Z,83.99
2022-11-04T01:51:01.468Z,83.64
2022-11-04T01:53:35.745Z,83.80
2022-11-04T01:56:12.346Z,84.37
2022-11-04T01:58:46.035Z,84.35
2022-11-04T02:01:13.472Z,84.16
2022-11-04T02:04:19.506Z,84.40
2022-11-04T02:06:48.670Z,84.43
2022-11-04T02:09:18.664Z,84.65
2022-11-04T02:12:04.812Z,84.02
2022-11-04T02:14:34.644Z,84.46
2022-11-04T02:17:23.104Z,84.64
2022-11-04T02:20:14.943Z,84.65
2022-11-04T02:23:08.796Z,84.96
2022-11-04T02:26:03.947Z,84.98
2022-11-04T02:28:50.785Z,84.99
2022-11-04T02:31:23.831Z,84.78
2022-11-04T02:34:09.759Z,85.18
2022-11-04T02:36:55.546Z,85.35
2022-11-04T02:39:35.068Z,85.51
2022-11-04T02:42:14.052Z,85.26
2022-11-04T02:45:00.282Z,85.29
2022-11-04T02:47:31.872Z,85.50
2022-11-04T02:50:12.577Z,85.68
2022-11-04T02:52:48.596Z,85.56
2022-11-04T02:55:23.621Z,85.13
2022-11-04T02:57:54.584Z,85.42
2022-11-04T03:00:22.154Z,85.57
2022-11-04T03:03:10.072Z,86.07
2022-11-04T03:06:05.184Z,85.53
2022-11-04T03:08:39.721Z,86.03
2022-11-04T03:11:22.149Z,86.24
2022-11-04T03:14:01.916Z,85.78
2022-11-04T03:16:33.194Z,85.58
2022-11-04T03:19:15.495Z,86.19
2022-11-04T03:21:51.304Z,86.03
2022-11-04T03:24:18.402Z,86.00
2022-11-04T03:26:53.110Z,85.86
2022-11-04T03:29:37.946Z,86.44
2022-11-04T03:32:08.467Z,86.40
2022-11-04T03:34:37.710Z,86.45
2022-11-04T03:37:05.465Z,86.45
2022-11-04T03:39:33.153Z,86.48
2022-11-04T03:42:20.548Z,86.11
2022-11-04T03:44:53.554Z,86.72
2022-11-04T03:47:26.622Z,86.62
2022-11-04T03:50:09.910Z,86.35
2022-11-04T03:52:37.275Z,86.46
2022-11-04T03:55:06.431Z,86.38
2022-11-04T03:58:01.261Z,87.06
2022-11-04T04:00:34.084Z,87.10
2022-11-04T04:03:16.136Z,87.36
2022-11-04T04:06:02.952Z,87.13
2022-11-04T04:08:44.724Z,87.21
2022-11-04T04:11:41.838Z,87.06
2022-11-04T04:14:11.658Z,87.35
2022-11-04T04:16:41.692Z,87.50
2022-11-04T04:19:13.985Z,87.06
2022-11-04T04:21:59.287Z,87.67
2022-11-04T04:24:51.748Z,87.39
2022-11-04T04:27:33.348Z,87.54
2022-11-04T04:30:06.632Z,87.89
2022-11-04T04:32:47.500Z,88.04
2022-11-04T04:35:33.790Z,87.71
2022-11-04T04:38:25.602Z,87.90
2022-11-04T04:41:18.749Z,88.09
2022-11-04T04:44:04.298Z,88.10
2022-11-04T04:46:32.691Z,88.22
2022-11-04T04:49:08.428Z,88.82
2022-11-04T04:51:39.944Z,88.15
2022-11-04T04:54:07.745Z,88.20
2022-11-04T04:56:34.880Z,88.49
2022-11-04T04:59:01.922Z,88.57
2022-11-04T05:01:29.341Z,88.54
2022-11-04T05:03:56.504Z,88.86
2022-11-04T05:06:23.537Z,88.30
2022-11-04T05:08:50.590Z,88.39
2022-11-04T05:11:20.493Z,88.85
2022-11-04T05:13:49.871Z,88.76
2022-11-04T05:16:16.920Z,88.56
2022-11-04T05:18:44.106Z,89.04
2022-11-04T05:21:14.388Z,89.02
2022-11-04T05:23:41.392Z,89.10
2022-11-04T05:26:08.609Z,88.90
2022-11-04T05:28:35.735Z,89.02
2022-11-04T05:31:04.584Z,89.12
2022-11-04T05:33:32.263Z,89.14
2022-11-04T05:36:11.343Z,88.96
2022-11-04T05:38:39.509Z,89.79
2022-11-04T05:41:08.144Z,89.49
2022-11-04T05:43:35.290Z,89.87
2022-11-04T05:46:02.988Z,89.91
2022-11-04T05:48:30.146Z,89.64
2022-11-04T05:50:57.493Z,89.24
2022-11-04T05:53:24.680Z,89.66
2022-11-04T05:55:51.905Z,90.10
2022-11-04T05:58:19.073Z,89.50
2022-11-04T06:00:46.185Z,89.96
2022-11-04T06:03:16.225Z,90.07
2022-11-04T06:05:43.797Z,90.09
2022-11-04T06:08:10.966Z,89.76
2022-11-04T06:10:38.356Z,89.87
2022-11-04T06:13:05.528Z,89.79
2022-11-04T06:15:32.663Z,90.10
2022-11-04T06:17:59.793Z,90.02
2022-11-04T06:20:26.823Z,90.32
2022-11-04T06:22:54.017Z,90.04
2022-11-04T06:25:21.233Z,90.13
2022-11-04T06:27:48.369Z,90.45
2022-11-04T06:30:15.665Z,90.60
2022-11-04T06:32:42.841Z,90.51
2022-11-04T06:35:10.031Z,89.64
2022-11-04T06:37:38.104Z,90.09
2022-11-04T06:40:05.753Z,90.36
2022-11-04T06:42:32.785Z,90.46
2022-11-04T06:44:59.904Z,90.08
2022-11-04T06:47:26.966Z,90.13
2022-11-04T06:49:54.112Z,90.43
2022-11-04T06:52:21.239Z,90.15
2022-11-04T06:54:48.353Z,89.99
2022-11-04T06:57:15.429Z,90.63
2022-11-04T06:59:42.474Z,90.13
2022-11-04T07:02:11.945Z,90.34
2022-11-04T07:04:39.076Z,90.12
2022-11-04T07:07:06.293Z,90.47
2022-11-04T07:09:34.097Z,90.70
2022-11-04T07:12:01.628Z,90.45
2022-11-04T07:14:28.909Z,90.45
2022-11-04T07:16:55.952Z,90.94
2022-11-04T07:19:23.065Z,90.48
2022-11-04T07:21:50.403Z,90.84
2022-11-04T07:24:17.776Z,90.57
2022-11-04T07:26:45.068Z,90.27
2022-11-04T07:29:12.259Z,90.28
2022-11-04T07:31:39.555Z,90.46
2022-11-04T07:34:06.817Z,90.66
2022-11-04T07:36:34.034Z,90.35
2022-11-04T07:39:02.272Z,90.20
2022-11-04T07:41:29.794Z,89.82
2022-11-04T07:43:59.066Z,90.28
2022-11-04T07:46:26.184Z,89.79
2022-11-04T07:48:53.356Z,89.98
2022-11-04T07:51:21.499Z,89.46
2022-11-04T07:53:48.584Z,89.63
2022-11-04T07:56:16.312Z,89.57
2022-11-04T07:58:43.597Z,89.14
2022-11-04T08:01:14.099Z,89.63
2022-11-04T08:03:41.380Z,89.35
2022-11-04T08:06:11.788Z,89.46
2022-11-04T08:08:39.082Z,89.55
2022-11-04T08:11:17.031Z,88.76
2022-11-04T08:13:46.374Z,88.96
2022-11-04T08:16:16.441Z,89.15
2022-11-04T08:18:44.650Z,88.62
2022-11-04T08:21:12.168Z,89.07
2022-11-04T08:23:39.346Z,88.85
2022-11-04T08:26:11.481Z,88.66
2022-11-04T08:28:39.736Z,88.85
2022-11-04T08:31:08.298Z,88.60
2022-11-04T08:33:36.856Z,88.92
2022-11-04T08:36:10.076Z,88.99
2022-11-04T08:38:37.674Z,88.60
2022-11-04T08:41:06.659Z,88.42
2022-11-04T08:43:35.106Z,88.26
2022-11-04T08:46:03.100Z,88.33
2022-11-04T08:48:30.242Z,88.38
2022-11-04T08:51:01.227Z,88.54
2022-11-04T08:53:28.407Z,88.20
2022-11-04T08:55:55.611Z,88.25
2022-11-04T08:58:24.986Z,87.97
2022-11-04T09:00:52.558Z,87.94
2022-11-04T09:03:19.704Z,87.36
2022-11-04T09:05:49.287Z,87.25
2022-11-04T09:08:18.131Z,87.30
2022-11-04T09:10:48.188Z,86.67
2022-11-04T09:13:16.653Z,87.27
2022-11-04T09:15:44.465Z,87.05
2022-11-04T09:18:11.746Z,87.55
2022-11-04T09:20:38.957Z,87.32
2022-11-04T09:23:06.868Z,87.26
2022-11-04T09:25:35.528Z,87.33
2022-11-04T09:28:02.674Z,87.59
2022-11-04T09:30:29.767Z,87.39
2022-11-04T09:32:56.879Z,87.70
2022-11-04T09:35:24.461Z,87.54
2022-11-04T09:37:51.678Z,87.69
2022-11-04T09:40:22.033Z,87.63
2022-11-04T09:42:49.262Z,87.96
2022-11-04T09:45:23.227Z,87.83
2022-11-04T09:47:55.433Z,88.30
2022-11-04T09:50:34.376Z,87.99
2022-11-04T09:53:07.716Z,87.87
2022-11-04T09:56:02.546Z,88.10
2022-11-04T09:58:37.019Z,87.49
2022-11-04T10:01:20.988Z,87.28
2022-11-04T10:04:02.021Z,87.19
2022-11-04T10:07:17.142Z,87.40
2022-11-04T10:10:00.737Z,87.48
2022-11-04T10:13:08.083Z,87.67
2022-11-04T10:15:44.779Z,87.71
2022-11-04T10:18:20.959Z,87.50
2022-11-04T10:20:48.297Z,87.15
2022-11-04T10:23:31.727Z,86.90
2022-11-04T10:26:15.477Z,86.86
2022-11-04T10:28:53.382Z,87.03
2022-11-04T10:31:20.672Z,86.64
2022-11-04T10:33:55.329Z,86.78
2022-11-04T10:36:25.237Z,87.28
2022-11-04T10:38:56.984Z,87.15
2022-11-04T10:41:39.546Z,87.38
2022-11-04T10:44:20.428Z,87.47
2022-11-04T10:46:54.561Z,87.29
2022-11-04T10:52:45.868Z,87.96
2022-11-04T10:55:31.194Z,88.06
2022-11-04T10:57:59.550Z,87.91
2022-11-04T11:00:39.536Z,87.83
2022-11-04T11:03:29.080Z,86.99
2022-11-04T11:06:14.636Z,87.32
2022-11-04T11:08:44.383Z,87.66
2022-11-04T11:11:13.539Z,87.71
2022-11-04T11:13:43.829Z,87.71
2022-11-04T11:16:13.631Z,87.42
2022-11-04T11:18:42.233Z,87.83
2022-11-04T11:21:16.237Z,87.59
2022-11-04T11:23:48.712Z,87.52
2022-11-04T11:26:20.029Z,87.64
2022-11-04T11:29:02.470Z,87.85
2022-11-04T11:31:38.179Z,88.12
2022-11-04T11:34:22.190Z,88.07
2022-11-04T11:36:50.173Z,88.07
2022-11-04T11:39:22.189Z,87.89
2022-11-04T11:42:04.507Z,88.47
2022-11-04T11:44:37.676Z,87.74
2022-11-04T11:47:07.628Z,88.44
2022-11-04T11:49:36.921Z,88.35
2022-11-04T11:52:27.668Z,88.38
2022-11-04T11:55:04.443Z,88.48
2022-11-04T12:00:40.268Z,88.77
2022-11-04T12:06:30.319Z,88.87
2022-11-04T12:09:35.051Z,89.38
2022-11-04T12:12:16.734Z,89.65
2022-11-04T12:15:05.218Z,90.04
2022-11-04T12:18:09.591Z,90.36
2022-11-04T12:20:39.559Z,90.85
2022-11-04T12:23:25.226Z,91.06
2022-11-04T12:26:14.188Z,91.35
2022-11-04T12:29:09.144Z,91.35
2022-11-04T12:31:54.707Z,91.50
2022-11-04T12:35:03.085Z,91.25
2022-11-04T12:38:05.627Z,91.63
2022-11-04T12:41:04.865Z,91.80
2022-11-04T12:43:43.431Z,91.94
2022-11-04T12:46:30.736Z,91.73
2022-11-04T12:49:21.096Z,91.48
2022-11-04T12:52:26.696Z,91.59
2022-11-04T12:55:14.467Z,91.30
2022-11-04T12:57:47.299Z,91.40
2022-11-04T13:00:17.825Z,91.61
2022-11-04T13:03:00.139Z,91.79
2022-11-04T13:05:58.645Z,91.71
2022-11-04T13:08:31.389Z,91.26
2022-11-04T13:11:24.046Z,91.33
2022-11-04T13:14:01.752Z,91.49
2022-11-04T13:16:31.903Z,91.35
2022-11-04T13:18:59.907Z,91.36
2022-11-04T13:21:34.557Z,91.28
2022-11-04T13:24:32.188Z,91.13
2022-11-04T13:27:04.037Z,90.75
2022-11-04T13:29:34.749Z,91.05
2022-11-04T13:32:07.512Z,91.24
2022-11-04T13:35:16.305Z,91.62
2022-11-04T13:37:58.789Z,91.62
2022-11-04T13:40:52.705Z,91.66
2022-11-04T13:43:40.196Z,91.91
2022-11-04T13:46:19.265Z,91.54
2022-11-04T13:49:11.618Z,91.85
2022-11-04T13:51:43.423Z,91.73
2022-11-04T13:54:34.211Z,92.04
2022-11-04T13:57:12.630Z,92.04
2022-11-04T13:59:40.670Z,92.24
2022-11-04T14:02:19.814Z,92.21
2022-11-04T14:04:47.946Z,91.94
2022-11-04T14:07:18.196Z,92.24
2022-11-04T14:09:45.264Z,92.40
2022-11-04T14:12:17.270Z,92.26
2022-11-04T14:14:46.218Z,92.37
2022-11-04T14:17:35.303Z,92.33
2022-11-04T14:20:07.937Z,92.55
2022-11-04T14:22:49.514Z,92.36
2022-11-04T14:25:36.715Z,92.79
2022-11-04T14:28:19.946Z,92.65
2022-11-04T14:30:53.704Z,92.84
2022-11-04T14:33:29.226Z,92.73
2022-11-04T14:35:57.844Z,93.05
2022-11-04T14:38:27.515Z,93.26
2022-11-04T14:41:16.587Z,92.94
2022-11-04T14:43:46.838Z,92.94
2022-11-04T14:46:22.389Z,92.72
2022-11-04T14:48:53.667Z,92.95
2022-11-04T14:51:41.006Z,92.99
2022-11-04T14:54:20.469Z,92.92
2022-11-04T14:56:47.637Z,92.84
2022-11-04T14:59:23.309Z,92.92
2022-11-04T15:01:52.645Z,92.89
2022-11-04T15:04:31.247Z,92.88
2022-11-04T15:07:01.649Z,92.96
2022-11-04T15:09:28.535Z,92.77
2022-11-04T15:12:32.445Z,92.71
2022-11-04T15:15:00.266Z,92.57
2022-11-04T15:17:31.584Z,92.90
2022-11-04T15:20:02.236Z,92.95
2022-11-04T15:22:30.715Z,92.71
2022-11-04T15:25:02.876Z,92.89
2022-11-04T15:27:30.663Z,92.96
2022-11-04T15:30:00.886Z,93.03
2022-11-04T15:32:28.307Z,92.96
2022-11-04T15:34:56.620Z,93.03
2022-11-04T15:37:26.182Z,92.88
2022-11-04T15:39:56.679Z,93.05
2022-11-04T15:43:00.244Z,92.84
2022-11-04T15:45:38.591Z,92.93
2022-11-04T15:48:35.032Z,92.90
2022-11-04T15:51:22.908Z,92.88
2022-11-04T15:54:06.368Z,92.98
2022-11-04T15:56:42.666Z,92.91
2022-11-04T15:59:16.104Z,93.00
2022-11-04T16:01:48.810Z,92.95
2022-11-04T16:04:18.285Z,93.14
2022-11-04T16:06:48.272Z,93.20
2022-11-04T16:09:27.144Z,93.00
2022-11-04T16:12:16.775Z,92.95
2022-11-04T16:14:52.365Z,93.00
2022-11-04T16:17:20.764Z,92.92
2022-11-04T16:20:04.557Z,93.09
2022-11-04T16:22:35.632Z,92.95
2022-11-04T16:25:05.716Z,92.84
2022-11-04T16:27:35.375Z,92.81
2022-11-04T16:30:06.474Z,93.10
2022-11-04T16:32:44.198Z,93.17
2022-11-04T16:35:22.054Z,93.17
2022-11-04T16:37:50.989Z,92.95
2022-11-04T16:40:19.462Z,93.54
2022-11-04T16:42:47.712Z,93.30
2022-11-04T16:45:23.854Z,93.18
2022-11-04T16:47:51.436Z,93.32
2022-11-04T16:50:18.854Z,93.23
2022-11-04T16:52:46.114Z,93.22
2022-11-04T16:55:15.046Z,93.37
2022-11-04T16:57:42.786Z,93.43
2022-11-04T17:00:23.415Z,93.24
2022-11-04T17:02:51.768Z,93.39
2022-11-04T17:05:19.638Z,93.37
2022-11-04T17:07:53.776Z,93.52
2022-11-04T17:10:25.673Z,93.38
2022-11-04T17:12:53.160Z,93.02
2022-11-04T17:15:20.577Z,93.08
2022-11-04T17:17:47.791Z,93.30
2022-11-04T17:20:17.886Z,93.20
2022-11-04T17:22:47.166Z,93.72
2022-11-04T17:25:21.123Z,93.11
2022-11-04T17:27:49.313Z,93.27
2022-11-04T17:30:17.452Z,93.28
2022-11-04T17:32:45.884Z,93.24
2022-11-04T17:35:13.874Z,93.21
2022-11-04T17:37:41.792Z,93.39
2022-11-04T17:40:13.903Z,93.51
2022-11-04T17:42:59.958Z,93.70
2022-11-04T17:45:27.223Z,93.74
2022-11-04T17:47:54.349Z,94.34
2022-11-04T17:50:21.786Z,94.19
2022-11-04T17:52:49.506Z,94.42
2022-11-04T17:55:20.701Z,94.42
2022-11-04T17:57:50.314Z,94.02
2022-11-04T18:00:18.394Z,94.03
2022-11-04T18:02:49.111Z,94.57
2022-11-04T18:05:16.425Z,94.20
2022-11-04T18:07:43.487Z,94.34
2022-11-04T18:10:11.668Z,94.46
2022-11-04T18:12:38.909Z,94.50
2022-11-04T18:15:10.321Z,94.75
2022-11-04T18:17:39.355Z,94.54
2022-11-04T18:20:13.391Z,94.73
2022-11-04T18:22:42.784Z,94.91
2022-11-04T18:25:11.614Z,94.71
2022-11-04T18:27:39.046Z,94.91
2022-11-04T18:30:07.291Z,94.71
2022-11-04T18:32:34.381Z,94.88
2022-11-04T18:35:01.480Z,94.78
2022-11-04T18:37:29.192Z,95.08
2022-11-04T18:39:56.386Z,95.08
2022-11-04T18:42:23.509Z,94.84
2022-11-04T18:44:50.837Z,94.83
2022-11-04T18:47:18.268Z,94.68
2022-11-04T18:49:47.220Z,95.47
2022-11-04T18:52:14.566Z,95.20
2022-11-04T18:54:44.889Z,95.23
2022-11-04T18:57:12.376Z,95.74
2022-11-04T18:59:39.617Z,96.17
2022-11-04T19:02:08.313Z,96.78
2022-11-04T19:04:35.535Z,97.47
2022-11-04T19:07:04.568Z,97.76
2022-11-04T19:09:46.121Z,98.13
2022-11-04T19:12:32.667Z,98.41
2022-11-04T19:14:59.834Z,98.54
2022-11-04T19:17:27.032Z,99.03
2022-11-04T19:19:54.242Z,99.45
2022-11-04T19:22:21.537Z,99.65
2022-11-04T19:24:48.855Z,99.70
2022-11-04T19:27:18.047Z,100.00
2022-11-04T19:29:46.143Z,100.00
2022-11-04T19:32:14.513Z,100.00
2022-11-04T19:34:42.818Z,100.00
2022-11-04T19:37:11.006Z,100.00
2022-11-04T19:39:38.998Z,100.00
2022-11-04T19:42:24.488Z,100.00
2022-11-04T19:44:51.859Z,100.00
2022-11-04T19:47:19.248Z,100.00
2022-11-04T19:49:46.497Z,100.00
2022-11-04T19:52:14.054Z,100.00
2022-11-04T19:54:41.188Z,100.00
2022-11-04T19:57:08.379Z,100.00
2022-11-04T19:59:35.591Z,100.00
2022-11-04T20:02:02.858Z,100.00
2022-11-04T20:04:30.096Z,100.00
2022-11-04T20:06:57.227Z,100.00
2022-11-04T20:09:26.208Z,100.00
2022-11-04T20:12:11.870Z,100.00
2022-11-04T20:14:39.448Z,100.00
2022-11-04T20:17:07.382Z,100.00
2022-11-04T20:19:35.474Z,100.00
2022-11-04T20:22:03.676Z,100.00
2022-11-04T20:24:31.006Z,100.00
2022-11-04T20:26:58.153Z,100.00
2022-11-04T20:29:25.197Z,100.00
2022-11-04T20:31:52.367Z,100.00
2022-11-04T20:34:19.654Z,100.00
2022-11-04T20:36:47.006Z,100.00
2022-11-04T20:39:17.606Z,100.00
2022-11-04T20:41:45.574Z,100.00
2022-11-04T20:44:14.966Z,100.00
2022-11-04T20:46:43.296Z,100.00
2022-11-04T20:49:11.371Z,100.00
2022-11-04T20:51:50.105Z,100.00
2022-11-04T20:54:19.046Z,100.00
2022-11-04T20:56:46.238Z,100.00
2022-11-04T20:59:14.190Z,100.00
2022-11-04T21:01:43.616Z,100.00
2022-11-04T21:04:15.244Z,100.00
2022-11-04T21:06:42.867Z,100.00
2022-11-04T21:09:13.037Z,100.00
2022-11-04T21:11:40.911Z,100.00
2022-11-04T21:14:11.752Z,100.00
2022-11-04T21:16:38.996Z,100.00
2022-11-04T21:19:06.728Z,100.00
2022-11-04T21:21:33.878Z,100.00
2022-11-04T21:24:03.395Z,100.00
2022-11-04T21:26:34.337Z,100.00
2022-11-04T21:29:07.309Z,100.00
2022-11-04T21:31:36.469Z,100.00
2022-11-04T21:34:04.927Z,100.00
2022-11-04T21:36:32.907Z,100.00
2022-11-04T21:39:00.585Z,100.00
2022-11-04T21:41:30.758Z,100.00
2022-11-04T21:44:03.187Z,100.00
2022-11-04T21:46:31.854Z,100.00
2022-11-04T21:48:59.717Z,100.00
2022-11-04T21:51:29.821Z,100.00
2022-11-04T21:53:58.288Z,100.00
2022-11-04T21:56:28.027Z,100.00
2022-11-04T21:58:56.152Z,100.00
2022-11-04T22:01:26.461Z,100.00
2022-11-04T22:03:54.885Z,100.00
2022-11-04T22:06:22.851Z,100.00
2022-11-04T22:08:54.547Z,100.00
2022-11-04T22:11:24.912Z,100.00
2022-11-04T22:13:57.031Z,100.00
2022-11-04T22:16:27.181Z,100.00
2022-11-04T22:18:56.147Z,100.00
2022-11-04T22:21:25.216Z,100.00
2022-11-04T22:23:52.666Z,100.00
2022-11-04T22:26:22.311Z,100.00
2022-11-04T22:28:49.465Z,100.00
2022-11-04T22:31:24.519Z,100.00
2022-11-04T22:33:52.466Z,100.00
2022-11-04T22:36:20.365Z,100.00
2022-11-04T22:38:47.780Z,100.00
2022-11-04T22:41:19.615Z,100.00
2022-11-04T22:43:46.857Z,100.00
2022-11-04T22:46:19.746Z,100.00
2022-11-04T22:48:47.130Z,100.00
2022-11-04T22:51:14.349Z,100.00
2022-11-04T22:53:41.889Z,100.00
2022-11-04T22:56:11.945Z,100.00
2022-11-04T22:58:39.198Z,100.00
2022-11-04T23:01:10.089Z,100.00
2022-11-04T23:03:37.726Z,100.00
2022-11-04T23:06:06.837Z,100.00
2022-11-04T23:08:35.677Z,100.00
2022-11-04T23:11:43.864Z,100.00
2022-11-04T23:14:34.011Z,100.00
2022-11-04T23:17:19.803Z,100.00
2022-11-04T23:19:46.930Z,100.00
2022-11-04T23:22:32.779Z,100.00
2022-11-04T23:25:05.953Z,100.00
2022-11-04T23:27:53.104Z,100.00
2022-11-04T23:30:26.811Z,100.00
2022-11-04T23:33:02.473Z,100.00
2022-11-04T23:35:58.140Z,100.00
2022-11-04T23:38:25.946Z,100.00
2022-11-04T23:41:15.562Z,100.00
2022-11-04T23:43:42.777Z,100.00
2022-11-04T23:46:29.536Z,100.00
2022-11-04T23:49:15.393Z,100.00
2022-11-04T23:52:01.311Z,100.00
2022-11-04T23:54:47.199Z,100.00
2022-11-04T23:57:35.126Z,100.00
